Time,TemperatureF,DewpointF,PressureIn,WindDirection,WindDirectionDegrees,WindSpeedMPH,WindSpeedGustMPH,Humidity,HourlyPrecipIn,Conditions,Clouds,dailyrainin,SoftwareType,DateUTC
2013-04-14 00:00:00,42.7,37.0,30.09,West,277,0.0,0.0,80,0.00,,,0.00,Wunderground v.1.15,2013-04-14 04:00:00,
2013-04-14 00:05:00,42.3,36.6,30.09,West,277,1.0,1.0,80,0.00,,,0.00,Wunderground v.1.15,2013-04-14 04:05:00,
2013-04-14 00:10:00,42.6,36.5,30.09,West,277,1.0,1.0,79,0.00,,,0.00,Wunderground v.1.15,2013-04-14 04:10:00,
2013-04-14 00:15:00,42.5,36.8,30.09,West,277,0.0,1.0,80,0.00,,,0.00,Wunderground v.1.15,2013-04-14 04:15:00,
2013-04-14 00:20:00,41.8,36.1,30.09,West,277,0.0,0.0,80,0.00,,,0.00,Wunderground v.1.15,2013-04-14 04:20:00,
2013-04-14 00:25:00,41.6,36.2,30.09,West,277,0.0,0.0,81,0.00,,,0.00,Wunderground v.1.15,2013-04-14 04:25:00,
2013-04-14 00:35:00,41.4,36.3,30.09,West,277,0.0,2.0,82,0.00,,,0.00,Wunderground v.1.15,2013-04-14 04:35:00,
2013-04-14 00:40:00,41.3,36.2,30.09,West,277,0.0,0.0,82,0.00,,,0.00,Wunderground v.1.15,2013-04-14 04:40:00,
2013-04-14 00:50:00,41.2,36.1,30.09,West,277,0.0,0.0,82,0.00,,,0.00,Wunderground v.1.15,2013-04-14 04:50:00,
2013-04-14 00:55:00,41.1,36.0,30.08,West,277,0.0,0.0,82,0.00,,,0.00,Wunderground v.1.15,2013-04-14 04:55:00,
2013-04-14 01:00:00,41.0,35.9,30.08,West,277,0.0,0.0,82,0.00,,,0.00,Wunderground v.1.15,2013-04-14 05:00:00,
2013-04-14 01:05:00,40.9,36.1,30.08,West,277,0.0,0.0,83,0.00,,,0.00,Wunderground v.1.15,2013-04-14 05:05:00,
2013-04-14 01:10:00,40.8,36.3,30.09,West,277,0.0,0.0,84,0.00,,,0.00,Wunderground v.1.15,2013-04-14 05:10:00,
2013-04-14 01:15:00,40.7,36.2,30.08,West,277,0.0,1.0,84,0.00,,,0.00,Wunderground v.1.15,2013-04-14 05:15:00,
2013-04-14 01:25:00,40.4,36.2,30.09,West,277,0.0,1.0,85,0.00,,,0.00,Wunderground v.1.15,2013-04-14 05:25:00,
2013-04-14 01:30:00,40.4,35.9,30.09,West,277,0.0,0.0,84,0.00,,,0.00,Wunderground v.1.15,2013-04-14 05:30:00,
2013-04-14 01:40:00,40.0,35.9,30.09,West,277,0.0,0.0,85,0.00,,,0.00,Wunderground v.1.15,2013-04-14 05:40:00,
2013-04-14 01:45:00,39.9,35.8,30.09,West,277,0.0,0.0,85,0.00,,,0.00,Wunderground v.1.15,2013-04-14 05:45:00,
2013-04-14 01:55:00,39.6,35.8,30.09,West,277,0.0,0.0,86,0.00,,,0.00,Wunderground v.1.15,2013-04-14 05:55:00,
2013-04-14 02:00:00,39.4,35.6,30.09,West,277,0.0,0.0,86,0.00,,,0.00,Wunderground v.1.15,2013-04-14 06:00:00,
2013-04-14 02:10:00,39.4,35.6,30.09,West,277,0.0,0.0,86,0.00,,,0.00,Wunderground v.1.15,2013-04-14 06:10:00,
2013-04-14 02:15:00,39.2,35.4,30.09,West,277,0.0,0.0,86,0.00,,,0.00,Wunderground v.1.15,2013-04-14 06:15:00,
2013-04-14 02:25:00,38.9,35.1,30.09,West,277,0.0,0.0,86,0.00,,,0.00,Wunderground v.1.15,2013-04-14 06:25:00,
2013-04-14 02:30:00,38.7,35.2,30.09,West,277,0.0,0.0,87,0.00,,,0.00,Wunderground v.1.15,2013-04-14 06:30:00,
2013-04-14 02:40:00,38.4,34.9,30.09,West,277,0.0,0.0,87,0.00,,,0.00,Wunderground v.1.15,2013-04-14 06:40:00,
2013-04-14 02:45:00,38.3,35.1,30.09,West,277,0.0,0.0,88,0.00,,,0.00,Wunderground v.1.15,2013-04-14 06:45:00,
2013-04-14 02:50:00,38.1,34.9,30.09,West,277,0.0,0.0,88,0.00,,,0.00,Wunderground v.1.15,2013-04-14 06:50:00,
2013-04-14 02:55:00,38.0,34.8,30.09,West,277,0.0,1.0,88,0.00,,,0.00,Wunderground v.1.15,2013-04-14 06:55:00,
2013-04-14 03:05:00,37.6,34.7,30.09,West,277,0.0,0.0,89,0.00,,,0.00,Wunderground v.1.15,2013-04-14 07:05:00,
2013-04-14 03:10:00,37.5,34.6,30.09,West,277,0.0,0.0,89,0.00,,,0.00,Wunderground v.1.15,2013-04-14 07:10:00,
2013-04-14 03:15:00,37.4,34.5,30.10,West,277,0.0,0.0,89,0.00,,,0.00,Wunderground v.1.15,2013-04-14 07:15:00,
2013-04-14 03:25:00,37.3,34.4,30.10,West,277,0.0,0.0,89,0.00,,,0.00,Wunderground v.1.15,2013-04-14 07:25:00,
2013-04-14 03:30:00,37.3,34.4,30.10,West,277,0.0,0.0,89,0.00,,,0.00,Wunderground v.1.15,2013-04-14 07:30:00,
2013-04-14 03:40:00,37.1,34.2,30.10,West,277,0.0,0.0,89,0.00,,,0.00,Wunderground v.1.15,2013-04-14 07:40:00,
2013-04-14 03:45:00,37.0,34.3,30.10,West,277,0.0,0.0,90,0.00,,,0.00,Wunderground v.1.15,2013-04-14 07:45:00,
2013-04-14 03:55:00,36.9,34.2,30.10,West,277,0.0,0.0,90,0.00,,,0.00,Wunderground v.1.15,2013-04-14 07:55:00,
2013-04-14 04:05:00,36.7,34.0,30.10,West,277,0.0,0.0,90,0.00,,,0.00,Wunderground v.1.15,2013-04-14 08:05:00,
2013-04-14 04:10:00,36.6,33.9,30.10,West,277,0.0,0.0,90,0.00,,,0.00,Wunderground v.1.15,2013-04-14 08:10:00,
2013-04-14 04:15:00,36.6,33.9,30.11,West,277,0.0,0.0,90,0.00,,,0.00,Wunderground v.1.15,2013-04-14 08:15:00,
2013-04-14 04:25:00,36.4,33.7,30.11,West,277,0.0,0.0,90,0.00,,,0.00,Wunderground v.1.15,2013-04-14 08:25:00,
2013-04-14 04:30:00,36.3,33.6,30.12,West,277,0.0,0.0,90,0.00,,,0.00,Wunderground v.1.15,2013-04-14 08:30:00,
2013-04-14 04:40:00,36.1,33.7,30.12,West,277,0.0,0.0,91,0.00,,,0.00,Wunderground v.1.15,2013-04-14 08:40:00,
2013-04-14 04:45:00,36.0,33.4,30.12,West,277,0.0,0.0,90,0.00,,,0.00,Wunderground v.1.15,2013-04-14 08:45:00,
2013-04-14 04:50:00,35.9,33.5,30.12,West,277,0.0,0.0,91,0.00,,,0.00,Wunderground v.1.15,2013-04-14 08:50:00,
2013-04-14 04:55:00,35.8,33.4,30.12,West,277,0.0,0.0,91,0.00,,,0.00,Wunderground v.1.15,2013-04-14 08:55:00,
2013-04-14 05:00:00,35.7,33.3,30.12,West,277,0.0,0.0,91,0.00,,,0.00,Wunderground v.1.15,2013-04-14 09:00:00,
2013-04-14 05:10:00,35.5,33.1,30.12,West,277,0.0,0.0,91,0.00,,,0.00,Wunderground v.1.15,2013-04-14 09:10:00,
2013-04-14 05:15:00,35.4,33.0,30.12,West,277,0.0,0.0,91,0.00,,,0.00,Wunderground v.1.15,2013-04-14 09:15:00,
2013-04-14 05:25:00,35.3,32.9,30.12,West,277,0.0,0.0,91,0.00,,,0.00,Wunderground v.1.15,2013-04-14 09:25:00,
2013-04-14 05:30:00,35.3,32.9,30.12,West,277,0.0,0.0,91,0.00,,,0.00,Wunderground v.1.15,2013-04-14 09:30:00,
2013-04-14 05:40:00,35.0,32.6,30.11,West,277,0.0,0.0,91,0.00,,,0.00,Wunderground v.1.15,2013-04-14 09:40:00,
2013-04-14 05:50:00,34.8,32.4,30.11,West,277,0.0,0.0,91,0.00,,,0.00,Wunderground v.1.15,2013-04-14 09:50:00,
2013-04-14 05:55:00,34.7,32.3,30.11,West,277,0.0,0.0,91,0.00,,,0.00,Wunderground v.1.15,2013-04-14 09:55:00,
2013-04-14 06:00:00,34.7,32.3,30.12,West,277,0.0,0.0,91,0.00,,,0.00,Wunderground v.1.15,2013-04-14 10:00:00,
2013-04-14 06:10:00,34.5,32.4,30.12,West,277,0.0,0.0,92,0.00,,,0.00,Wunderground v.1.15,2013-04-14 10:10:00,
2013-04-14 06:15:00,34.4,32.3,30.12,West,277,0.0,0.0,92,0.00,,,0.00,Wunderground v.1.15,2013-04-14 10:15:00,
2013-04-14 06:25:00,34.3,32.2,30.12,West,277,0.0,0.0,92,0.00,,,0.00,Wunderground v.1.15,2013-04-14 10:25:00,
2013-04-14 06:30:00,34.2,32.1,30.12,West,277,0.0,0.0,92,0.00,,,0.00,Wunderground v.1.15,2013-04-14 10:30:00,
2013-04-14 06:35:00,34.1,32.0,30.13,West,277,0.0,0.0,92,0.00,,,0.00,Wunderground v.1.15,2013-04-14 10:35:00,
2013-04-14 06:40:00,34.1,32.0,30.13,West,277,0.0,0.0,92,0.00,,,0.00,Wunderground v.1.15,2013-04-14 10:40:00,
2013-04-14 06:50:00,34.0,31.9,30.13,West,277,0.0,0.0,92,0.00,,,0.00,Wunderground v.1.15,2013-04-14 10:50:00,
2013-04-14 06:55:00,34.0,31.9,30.12,West,277,0.0,0.0,92,0.00,,,0.00,Wunderground v.1.15,2013-04-14 10:55:00,
2013-04-14 07:00:00,34.0,31.9,30.12,West,277,0.0,0.0,92,0.00,,,0.00,Wunderground v.1.15,2013-04-14 11:00:00,
2013-04-14 07:10:00,34.0,31.9,30.12,West,277,0.0,0.0,92,0.00,,,0.00,Wunderground v.1.15,2013-04-14 11:10:00,
2013-04-14 07:15:00,33.9,31.8,30.12,West,277,0.0,0.0,92,0.00,,,0.00,Wunderground v.1.15,2013-04-14 11:15:00,
2013-04-14 07:25:00,34.1,32.3,30.13,West,277,0.0,1.0,93,0.00,,,0.00,Wunderground v.1.15,2013-04-14 11:25:00,
2013-04-14 07:30:00,34.1,32.3,30.13,West,277,0.0,0.0,93,0.00,,,0.00,Wunderground v.1.15,2013-04-14 11:30:00,
2013-04-14 07:35:00,34.2,32.4,30.14,West,277,1.0,1.0,93,0.00,,,0.00,Wunderground v.1.15,2013-04-14 11:35:00,
2013-04-14 07:40:00,34.3,32.5,30.14,West,277,0.0,0.0,93,0.00,,,0.00,Wunderground v.1.15,2013-04-14 11:40:00,
2013-04-14 07:45:00,34.7,32.9,30.14,West,277,0.0,1.0,93,0.00,,,0.00,Wunderground v.1.15,2013-04-14 11:45:00,
2013-04-14 07:55:00,36.1,34.3,30.14,West,277,0.0,0.0,93,0.00,,,0.00,Wunderground v.1.15,2013-04-14 11:55:00,
2013-04-14 08:00:00,36.8,35.2,30.14,West,277,0.0,0.0,94,0.00,,,0.00,Wunderground v.1.15,2013-04-14 12:00:00,
2013-04-14 08:10:00,38.0,36.2,30.14,WSW,253,0.0,2.0,93,0.00,,,0.00,Wunderground v.1.15,2013-04-14 12:10:00,
2013-04-14 08:15:00,38.7,36.6,30.14,WSW,253,1.0,2.0,92,0.00,,,0.00,Wunderground v.1.15,2013-04-14 12:15:00,
2013-04-14 08:25:00,40.8,38.4,30.14,ESE,120,0.0,0.0,91,0.00,,,0.00,Wunderground v.1.15,2013-04-14 12:25:00,
2013-04-14 08:30:00,41.8,39.1,30.14,ESE,120,0.0,0.0,90,0.00,,,0.00,Wunderground v.1.15,2013-04-14 12:30:00,
2013-04-14 08:40:00,44.3,39.2,30.14,East,80,1.0,1.0,82,0.00,,,0.00,Wunderground v.1.15,2013-04-14 12:40:00,
2013-04-14 08:45:00,45.6,39.1,30.14,ENE,74,1.0,2.0,78,0.00,,,0.00,Wunderground v.1.15,2013-04-14 12:45:00,
2013-04-14 08:55:00,47.6,39.7,30.14,ESE,110,1.0,2.0,74,0.00,,,0.00,Wunderground v.1.15,2013-04-14 12:55:00,
2013-04-14 09:05:00,49.3,40.7,30.14,ESE,118,1.0,1.0,72,0.00,,,0.00,Wunderground v.1.15,2013-04-14 13:05:00,
2013-04-14 09:10:00,50.6,41.2,30.14,ESE,118,0.0,0.0,70,0.00,,,0.00,Wunderground v.1.15,2013-04-14 13:10:00,
2013-04-14 09:15:00,50.8,41.0,30.13,ESE,118,1.0,1.0,69,0.00,,,0.00,Wunderground v.1.15,2013-04-14 13:15:00,
2013-04-14 09:25:00,52.0,41.8,30.13,ESE,118,0.0,1.0,68,0.00,,,0.00,Wunderground v.1.15,2013-04-14 13:25:00,
2013-04-14 09:30:00,52.9,40.6,30.13,ESE,118,0.0,0.0,63,0.00,,,0.00,Wunderground v.1.15,2013-04-14 13:30:00,
2013-04-14 09:40:00,54.1,41.4,30.13,ESE,107,1.0,1.0,62,0.00,,,0.00,Wunderground v.1.15,2013-04-14 13:40:00,
2013-04-14 09:45:00,54.4,41.2,30.13,ESE,107,2.0,2.0,61,0.00,,,0.00,Wunderground v.1.15,2013-04-14 13:45:00,
2013-04-14 09:50:00,55.0,41.4,30.13,ENE,78,2.0,3.0,60,0.00,,,0.00,Wunderground v.1.15,2013-04-14 13:50:00,
2013-04-14 09:55:00,55.6,41.5,30.13,ENE,78,2.0,3.0,59,0.00,,,0.00,Wunderground v.1.15,2013-04-14 13:55:00,
2013-04-14 10:00:00,56.3,41.3,30.13,East,96,2.0,2.0,57,0.00,,,0.00,Wunderground v.1.15,2013-04-14 14:00:00,
2013-04-14 10:10:00,57.9,41.8,30.13,East,100,1.0,1.0,55,0.00,,,0.00,Wunderground v.1.15,2013-04-14 14:10:00,
2013-04-14 10:15:00,59.0,40.4,30.12,East,100,1.0,1.0,50,0.00,,,0.00,Wunderground v.1.15,2013-04-14 14:15:00,
2013-04-14 10:25:00,60.5,40.7,30.12,East,85,1.0,1.0,48,0.00,,,0.00,Wunderground v.1.15,2013-04-14 14:25:00,
2013-04-14 10:30:00,61.0,40.6,30.12,East,85,1.0,2.0,47,0.00,,,0.00,Wunderground v.1.15,2013-04-14 14:30:00,
2013-04-14 10:40:00,62.2,41.2,30.11,East,97,2.0,2.0,46,0.00,,,0.00,Wunderground v.1.15,2013-04-14 14:40:00,
2013-04-14 10:50:00,63.5,40.6,30.10,East,88,2.0,2.0,43,0.00,,,0.00,Wunderground v.1.15,2013-04-14 14:50:00,
2013-04-14 10:55:00,63.8,40.9,30.10,ESE,105,2.0,6.0,43,0.00,,,0.00,Wunderground v.1.15,2013-04-14 14:55:00,
2013-04-14 11:00:00,64.3,40.1,30.10,ENE,74,2.0,2.0,41,0.00,,,0.00,Wunderground v.1.15,2013-04-14 15:00:00,
2013-04-14 11:10:00,65.7,40.1,30.09,ENE,74,1.0,3.0,39,0.00,,,0.00,Wunderground v.1.15,2013-04-14 15:10:00,
2013-04-14 11:15:00,66.4,40.0,30.09,ESE,109,1.0,3.0,38,0.00,,,0.00,Wunderground v.1.15,2013-04-14 15:15:00,
2013-04-14 11:25:00,67.8,38.4,30.09,SE,146,2.0,2.0,34,0.00,,,0.00,Wunderground v.1.15,2013-04-14 15:25:00,
2013-04-14 11:30:00,68.3,38.1,30.09,East,80,1.0,2.0,33,0.00,,,0.00,Wunderground v.1.15,2013-04-14 15:30:00,
2013-04-14 11:35:00,68.3,38.1,30.08,ESE,119,2.0,2.0,33,0.00,,,0.00,Wunderground v.1.15,2013-04-14 15:35:00,
2013-04-14 11:40:00,68.8,37.7,30.08,ENE,57,2.0,2.0,32,0.00,,,0.00,Wunderground v.1.15,2013-04-14 15:40:00,
2013-04-14 11:45:00,69.2,39.6,30.08,ESE,106,2.0,4.0,34,0.00,,,0.00,Wunderground v.1.15,2013-04-14 15:45:00,
2013-04-14 11:55:00,69.5,38.3,30.08,NNE,12,2.0,2.0,32,0.00,,,0.00,Wunderground v.1.15,2013-04-14 15:55:00,
2013-04-14 12:00:00,69.8,37.8,30.08,East,89,2.0,2.0,31,0.00,,,0.00,Wunderground v.1.15,2013-04-14 16:00:00,
2013-04-14 12:10:00,70.2,38.9,30.07,NNE,13,3.0,4.0,32,0.00,,,0.00,Wunderground v.1.15,2013-04-14 16:10:00,
2013-04-14 12:15:00,70.7,39.4,30.07,ENE,61,3.0,4.0,32,0.00,,,0.00,Wunderground v.1.15,2013-04-14 16:15:00,
2013-04-14 12:25:00,71.6,38.5,30.06,East,81,2.0,4.0,30,0.00,,,0.00,Wunderground v.1.15,2013-04-14 16:25:00,
2013-04-14 12:30:00,71.7,38.6,30.06,ESE,104,3.0,3.0,30,0.00,,,0.00,Wunderground v.1.15,2013-04-14 16:30:00,
2013-04-14 12:35:00,72.1,42.9,30.06,NE,46,3.0,6.0,35,0.00,,,0.00,Wunderground v.1.15,2013-04-14 16:35:00,
2013-04-14 12:40:00,72.8,39.5,30.05,NE,42,2.0,2.0,30,0.00,,,0.00,Wunderground v.1.15,2013-04-14 16:40:00,
2013-04-14 12:45:00,73.4,39.2,30.05,ENE,78,3.0,4.0,29,0.00,,,0.00,Wunderground v.1.15,2013-04-14 16:45:00,
2013-04-14 12:55:00,73.5,37.5,30.05,East,92,4.0,6.0,27,0.00,,,0.00,Wunderground v.1.15,2013-04-14 16:55:00,
2013-04-14 13:00:00,73.5,38.4,30.05,ENE,74,3.0,5.0,28,0.00,,,0.00,Wunderground v.1.15,2013-04-14 17:00:00,
2013-04-14 13:10:00,73.6,38.5,30.05,NNW,342,4.0,4.0,28,0.00,,,0.00,Wunderground v.1.15,2013-04-14 17:10:00,
2013-04-14 13:20:00,74.6,39.3,30.04,WNW,292,2.0,2.0,28,0.00,,,0.00,Wunderground v.1.15,2013-04-14 17:20:00,
2013-04-14 13:25:00,75.0,39.7,30.04,NE,43,2.0,2.0,28,0.00,,,0.00,Wunderground v.1.15,2013-04-14 17:25:00,
2013-04-14 13:35:00,75.2,38.9,30.03,ENE,61,2.0,7.0,27,0.00,,,0.00,Wunderground v.1.15,2013-04-14 17:35:00,
2013-04-14 13:40:00,75.3,40.8,30.03,East,80,3.0,5.0,29,0.00,,,0.00,Wunderground v.1.15,2013-04-14 17:40:00,
2013-04-14 13:45:00,75.2,39.8,30.03,East,88,4.0,5.0,28,0.00,,,0.00,Wunderground v.1.15,2013-04-14 17:45:00,
2013-04-14 13:55:00,74.4,40.1,30.02,ESE,118,5.0,8.0,29,0.00,,,0.00,Wunderground v.1.15,2013-04-14 17:55:00,
2013-04-14 14:00:00,74.7,37.5,30.02,East,88,6.0,6.0,26,0.00,,,0.00,Wunderground v.1.15,2013-04-14 18:00:00,
2013-04-14 14:10:00,74.3,37.2,30.02,East,87,6.0,6.0,26,0.00,,,0.00,Wunderground v.1.15,2013-04-14 18:10:00,
2013-04-14 14:15:00,74.1,38.0,30.02,ENE,67,6.0,6.0,27,0.00,,,0.00,Wunderground v.1.15,2013-04-14 18:15:00,
2013-04-14 14:20:00,74.1,38.9,30.02,East,89,6.0,6.0,28,0.00,,,0.00,Wunderground v.1.15,2013-04-14 18:20:00,
2013-04-14 14:25:00,74.1,37.0,30.01,East,83,6.0,6.0,26,0.00,,,0.00,Wunderground v.1.15,2013-04-14 18:25:00,
2013-04-14 14:30:00,73.5,37.5,30.01,ENE,65,7.0,7.0,27,0.00,,,0.00,Wunderground v.1.15,2013-04-14 18:30:00,
2013-04-14 14:40:00,73.8,38.6,30.01,NNE,20,6.0,6.0,28,0.00,,,0.00,Wunderground v.1.15,2013-04-14 18:40:00,
2013-04-14 14:45:00,74.1,38.9,30.01,ENE,61,7.0,7.0,28,0.00,,,0.00,Wunderground v.1.15,2013-04-14 18:45:00,
2013-04-14 14:55:00,73.7,37.6,30.01,ENE,57,6.0,7.0,27,0.00,,,0.00,Wunderground v.1.15,2013-04-14 18:55:00,
2013-04-14 15:00:00,73.5,37.5,30.01,East,84,6.0,10.0,27,0.00,,,0.00,Wunderground v.1.15,2013-04-14 19:00:00,
2013-04-14 15:10:00,73.5,37.5,30.00,NE,53,8.0,8.0,27,0.00,,,0.00,Wunderground v.1.15,2013-04-14 19:10:00,
2013-04-14 15:15:00,73.5,37.5,30.00,ENE,62,8.0,10.0,27,0.00,,,0.00,Wunderground v.1.15,2013-04-14 19:15:00,
2013-04-14 15:25:00,73.8,38.6,29.99,East,94,6.0,7.0,28,0.00,,,0.00,Wunderground v.1.15,2013-04-14 19:25:00,
2013-04-14 15:30:00,74.1,38.0,29.99,NE,43,5.0,6.0,27,0.00,,,0.00,Wunderground v.1.15,2013-04-14 19:30:00,
2013-04-14 15:40:00,74.0,37.9,29.99,NE,37,6.0,6.0,27,0.00,,,0.00,Wunderground v.1.15,2013-04-14 19:40:00,
2013-04-14 15:45:00,73.9,37.8,29.99,NE,36,6.0,6.0,27,0.00,,,0.00,Wunderground v.1.15,2013-04-14 19:45:00,
2013-04-14 15:55:00,73.8,38.6,29.99,ENE,60,5.0,10.0,28,0.00,,,0.00,Wunderground v.1.15,2013-04-14 19:55:00,
2013-04-14 16:00:00,73.6,38.5,29.99,NE,50,6.0,6.0,28,0.00,,,0.00,Wunderground v.1.15,2013-04-14 20:00:00,
2013-04-14 16:05:00,73.6,38.5,29.99,East,80,6.0,6.0,28,0.00,,,0.00,Wunderground v.1.15,2013-04-14 20:05:00,
2013-04-14 16:10:00,73.6,39.4,29.99,ENE,66,5.0,5.0,29,0.00,,,0.00,Wunderground v.1.15,2013-04-14 20:10:00,
2013-04-14 16:15:00,73.5,40.2,29.99,North,355,5.0,5.0,30,0.00,,,0.00,Wunderground v.1.15,2013-04-14 20:15:00,
2013-04-14 16:25:00,73.5,39.3,29.99,NNE,24,3.0,4.0,29,0.00,,,0.00,Wunderground v.1.15,2013-04-14 20:25:00,
2013-04-14 16:30:00,73.3,39.1,29.99,NE,40,3.0,3.0,29,0.00,,,0.00,Wunderground v.1.15,2013-04-14 20:30:00,
2013-04-14 16:40:00,72.8,39.5,29.99,East,93,3.0,5.0,30,0.00,,,0.00,Wunderground v.1.15,2013-04-14 20:40:00,
2013-04-14 16:45:00,72.7,40.3,29.99,NE,53,3.0,5.0,31,0.00,,,0.00,Wunderground v.1.15,2013-04-14 20:45:00,
2013-04-14 16:50:00,72.6,39.4,29.99,NNE,32,3.0,3.0,30,0.00,,,0.00,Wunderground v.1.15,2013-04-14 20:50:00,
2013-04-14 16:55:00,72.4,40.0,29.99,NNE,29,3.0,4.0,31,0.00,,,0.00,Wunderground v.1.15,2013-04-14 20:55:00,
2013-04-14 17:00:00,72.0,38.9,30.00,ENE,69,4.0,4.0,30,0.00,,,0.00,Wunderground v.1.15,2013-04-14 21:00:00,
2013-04-14 17:10:00,71.8,39.5,30.00,ENE,76,3.0,5.0,31,0.00,,,0.00,Wunderground v.1.15,2013-04-14 21:10:00,
2013-04-14 17:15:00,71.6,40.2,30.00,ENE,66,3.0,5.0,32,0.00,,,0.00,Wunderground v.1.15,2013-04-14 21:15:00,
2013-04-14 17:25:00,71.5,40.1,30.00,North,360,2.0,4.0,32,0.00,,,0.00,Wunderground v.1.15,2013-04-14 21:25:00,
2013-04-14 17:30:00,71.5,40.9,30.00,NNE,25,2.0,5.0,33,0.00,,,0.00,Wunderground v.1.15,2013-04-14 21:30:00,
2013-04-14 17:35:00,71.4,40.0,29.99,NNE,12,2.0,5.0,32,0.00,,,0.00,Wunderground v.1.15,2013-04-14 21:35:00,
2013-04-14 17:40:00,71.3,40.7,30.00,East,100,2.0,7.0,33,0.00,,,0.00,Wunderground v.1.15,2013-04-14 21:40:00,
2013-04-14 17:45:00,71.2,41.4,30.00,North,9,2.0,7.0,34,0.00,,,0.00,Wunderground v.1.15,2013-04-14 21:45:00,
2013-04-14 17:55:00,70.9,41.1,29.99,ENE,61,2.0,3.0,34,0.00,,,0.00,Wunderground v.1.15,2013-04-14 21:55:00,
2013-04-14 18:00:00,70.7,40.9,30.00,NNE,18,2.0,3.0,34,0.00,,,0.00,Wunderground v.1.15,2013-04-14 22:00:00,
2013-04-14 18:10:00,70.5,40.8,29.99,NE,44,1.0,1.0,34,0.00,,,0.00,Wunderground v.1.15,2013-04-14 22:10:00,
2013-04-14 18:15:00,70.3,41.3,30.00,East,85,2.0,2.0,35,0.00,,,0.00,Wunderground v.1.15,2013-04-14 22:15:00,
2013-04-14 18:20:00,70.1,41.2,30.00,ENE,58,2.0,2.0,35,0.00,,,0.00,Wunderground v.1.15,2013-04-14 22:20:00,
2013-04-14 18:25:00,69.9,41.0,30.00,NNW,327,2.0,2.0,35,0.00,,,0.00,Wunderground v.1.15,2013-04-14 22:25:00,
2013-04-14 18:30:00,69.5,39.9,30.00,East,84,2.0,2.0,34,0.00,,,0.00,Wunderground v.1.15,2013-04-14 22:30:00,
2013-04-14 18:40:00,69.3,40.5,30.00,WNW,299,2.0,5.0,35,0.00,,,0.00,Wunderground v.1.15,2013-04-14 22:40:00,
2013-04-14 18:50:00,69.0,39.4,30.00,NNW,337,2.0,3.0,34,0.00,,,0.00,Wunderground v.1.15,2013-04-14 22:50:00,
2013-04-14 18:55:00,68.8,40.0,30.00,NNW,338,2.0,3.0,35,0.00,,,0.00,Wunderground v.1.15,2013-04-14 22:55:00,
2013-04-14 19:00:00,68.5,38.2,30.00,North,9,1.0,2.0,33,0.00,,,0.00,Wunderground v.1.15,2013-04-14 23:00:00,
2013-04-14 19:05:00,68.4,40.4,30.00,North,360,1.0,2.0,36,0.00,,,0.00,Wunderground v.1.15,2013-04-14 23:05:00,
2013-04-14 19:10:00,68.0,42.1,30.00,North,360,0.0,0.0,39,0.00,,,0.00,Wunderground v.1.15,2013-04-14 23:10:00,
2013-04-14 19:15:00,67.5,40.3,30.00,NW,318,1.0,2.0,37,0.00,,,0.00,Wunderground v.1.15,2013-04-14 23:15:00,
2013-04-14 19:25:00,66.4,43.2,30.00,NW,315,1.0,1.0,43,0.00,,,0.00,Wunderground v.1.15,2013-04-14 23:25:00,
2013-04-14 19:30:00,66.1,42.3,30.00,NW,315,1.0,1.0,42,0.00,,,0.00,Wunderground v.1.15,2013-04-14 23:30:00,
2013-04-14 19:40:00,65.4,43.5,30.00,WNW,294,0.0,0.0,45,0.00,,,0.00,Wunderground v.1.15,2013-04-14 23:40:00,
2013-04-14 19:45:00,64.9,41.9,30.00,WNW,294,0.0,0.0,43,0.00,,,0.00,Wunderground v.1.15,2013-04-14 23:45:00,
2013-04-14 19:50:00,64.6,42.2,30.00,WNW,294,0.0,1.0,44,0.00,,,0.00,Wunderground v.1.15,2013-04-14 23:50:00,
2013-04-14 19:55:00,64.4,42.0,30.00,WNW,294,0.0,1.0,44,0.00,,,0.00,Wunderground v.1.15,2013-04-14 23:55:00,
2013-04-14 20:00:00,64.1,42.9,30.00,WNW,294,0.0,1.0,46,0.00,,,0.00,Wunderground v.1.15,2013-04-15 00:00:00,
2013-04-14 20:10:00,63.2,43.7,30.00,WNW,294,0.0,0.0,49,0.00,,,0.00,Wunderground v.1.15,2013-04-15 00:10:00,
2013-04-14 20:15:00,62.8,42.8,30.00,WNW,294,0.0,0.0,48,0.00,,,0.00,Wunderground v.1.15,2013-04-15 00:15:00,
2013-04-14 20:25:00,62.7,42.2,30.00,WNW,295,1.0,1.0,47,0.00,,,0.00,Wunderground v.1.15,2013-04-15 00:25:00,
2013-04-14 20:30:00,62.7,42.2,30.00,WNW,295,1.0,1.0,47,0.00,,,0.00,Wunderground v.1.15,2013-04-15 00:30:00,
2013-04-14 20:35:00,62.6,44.2,30.00,WNW,295,0.0,1.0,51,0.00,,,0.00,Wunderground v.1.15,2013-04-15 00:35:00,
2013-04-14 20:40:00,62.3,43.9,30.00,WNW,295,0.0,0.0,51,0.00,,,0.00,Wunderground v.1.15,2013-04-15 00:40:00,
2013-04-14 20:45:00,61.9,44.6,30.00,WNW,295,0.0,0.0,53,0.00,,,0.00,Wunderground v.1.15,2013-04-15 00:45:00,
2013-04-14 20:55:00,61.4,45.6,30.00,WNW,295,0.0,0.0,56,0.00,,,0.00,Wunderground v.1.15,2013-04-15 00:55:00,
2013-04-14 21:00:00,61.2,44.9,30.00,WNW,295,0.0,1.0,55,0.00,,,0.00,Wunderground v.1.15,2013-04-15 01:00:00,
2013-04-14 21:10:00,60.7,43.9,30.01,WNW,295,0.0,0.0,54,0.00,,,0.00,Wunderground v.1.15,2013-04-15 01:10:00,
2013-04-14 21:15:00,60.6,44.8,30.01,WNW,295,0.0,2.0,56,0.00,,,0.00,Wunderground v.1.15,2013-04-15 01:15:00,
2013-04-14 21:20:00,60.3,44.5,30.01,WNW,295,0.0,2.0,56,0.00,,,0.00,Wunderground v.1.15,2013-04-15 01:20:00,
2013-04-14 21:25:00,60.6,46.2,30.01,WNW,292,1.0,2.0,59,0.00,,,0.00,Wunderground v.1.15,2013-04-15 01:25:00,
2013-04-14 21:30:00,60.5,47.0,30.01,WNW,292,1.0,1.0,61,0.00,,,0.00,Wunderground v.1.15,2013-04-15 01:30:00,
2013-04-14 21:40:00,60.2,47.6,30.02,WNW,287,1.0,1.0,63,0.00,,,0.00,Wunderground v.1.15,2013-04-15 01:40:00,
2013-04-14 21:45:00,59.7,46.7,30.02,ESE,108,1.0,1.0,62,0.00,,,0.00,Wunderground v.1.15,2013-04-15 01:45:00,
2013-04-14 21:55:00,60.0,47.4,30.03,ENE,75,2.0,6.0,63,0.00,,,0.00,Wunderground v.1.15,2013-04-15 01:55:00,
2013-04-14 22:00:00,60.5,47.4,30.03,SSE,159,2.0,2.0,62,0.00,,,0.00,Wunderground v.1.15,2013-04-15 02:00:00,
2013-04-14 22:10:00,59.3,48.3,30.04,South,176,1.0,1.0,67,0.00,,,0.00,Wunderground v.1.15,2013-04-15 02:10:00,
2013-04-14 22:15:00,58.9,48.7,30.04,South,176,0.0,1.0,69,0.00,,,0.00,Wunderground v.1.15,2013-04-15 02:15:00,
2013-04-14 22:20:00,58.6,47.7,30.05,North,5,1.0,3.0,67,0.00,,,0.00,Wunderground v.1.15,2013-04-15 02:20:00,
2013-04-14 22:25:00,58.6,47.7,30.04,NE,48,2.0,5.0,67,0.00,,,0.00,Wunderground v.1.15,2013-04-15 02:25:00,
2013-04-14 22:30:00,59.1,43.9,30.04,ENE,57,4.0,6.0,57,0.00,,,0.00,Wunderground v.1.15,2013-04-15 02:30:00,
2013-04-14 22:40:00,59.7,47.1,30.03,South,170,3.0,3.0,63,0.00,,,0.00,Wunderground v.1.15,2013-04-15 02:40:00,
2013-04-14 22:45:00,58.6,47.3,30.03,SW,223,2.0,3.0,66,0.00,,,0.00,Wunderground v.1.15,2013-04-15 02:45:00,
2013-04-14 22:55:00,57.4,48.4,30.02,NNW,338,0.0,4.0,72,0.00,,,0.00,Wunderground v.1.15,2013-04-15 02:55:00,
2013-04-14 23:00:00,57.3,48.0,30.02,South,175,1.0,4.0,71,0.00,,,0.00,Wunderground v.1.15,2013-04-15 03:00:00,
2013-04-14 23:05:00,57.1,45.0,30.01,South,178,2.0,4.0,64,0.00,,,0.00,Wunderground v.1.15,2013-04-15 03:05:00,
2013-04-14 23:10:00,57.3,47.6,30.01,SW,223,2.0,2.0,70,0.00,,,0.00,Wunderground v.1.15,2013-04-15 03:10:00,
2013-04-14 23:20:00,56.8,47.9,30.02,WSW,247,1.0,1.0,72,0.00,,,0.00,Wunderground v.1.15,2013-04-15 03:20:00,
2013-04-14 23:25:00,56.4,48.6,30.03,WSW,247,0.0,1.0,75,0.00,,,0.00,Wunderground v.1.15,2013-04-15 03:25:00,
2013-04-14 23:30:00,56.1,48.3,30.03,WNW,285,0.0,4.0,75,0.00,,,0.00,Wunderground v.1.15,2013-04-15 03:30:00,
2013-04-14 23:40:00,55.3,49.2,30.04,SSW,209,1.0,1.0,80,0.00,,,0.01,Wunderground v.1.15,2013-04-15 03:40:00,
2013-04-14 23:45:00,54.7,48.6,30.04,West,268,1.0,1.0,80,0.00,,,0.01,Wunderground v.1.15,2013-04-15 03:45:00,
2013-04-14 23:55:00,54.1,49.7,30.04,West,268,0.0,1.0,85,0.00,,,0.02,Wunderground v.1.15,2013-04-15 03:55:00,